createdAt,value
2023-05-12T00:01:14.282Z,98263.31
2023-05-12T00:04:16.912Z,98260.91
2023-05-12T00:07:20.995Z,98262.84
2023-05-12T00:10:23.663Z,98259.69
2023-05-12T00:13:26.951Z,98250.19
2023-05-12T00:16:29.685Z,98248.50
2023-05-12T00:19:32.359Z,98250.34
2023-05-12T00:22:36.271Z,98249.78
2023-05-12T00:25:38.939Z,98246.97
2023-05-12T00:28:41.640Z,98244.75
2023-05-12T00:31:44.277Z,98241.31
2023-05-12T00:34:46.878Z,98244.69
2023-05-12T00:37:50.762Z,98249.59
2023-05-12T00:40:53.313Z,98244.81
2023-05-12T00:43:56.127Z,98249.13
2023-05-12T00:46:59.070Z,98244.00
2023-05-12T00:50:01.644Z,98245.53
2023-05-12T00:53:05.464Z,98245.84
2023-05-12T00:56:08.323Z,98240.72
2023-05-12T00:59:10.933Z,98242.66
2023-05-12T01:02:13.496Z,98251.25
2023-05-12T01:05:16.599Z,98250.91
2023-05-12T01:08:21.055Z,98244.16
2023-05-12T01:11:23.557Z,98240.59
2023-05-12T01:14:26.984Z,98237.97
2023-05-12T01:17:30.555Z,98245.28
2023-05-12T01:20:35.884Z,98246.44
2023-05-12T01:23:44.244Z,98239.25
2023-05-12T01:26:48.159Z,98239.06
2023-05-12T01:29:51.200Z,98237.03
2023-05-12T01:32:54.583Z,98241.25
2023-05-12T01:35:57.107Z,98236.47
2023-05-12T01:38:59.702Z,98240.38
2023-05-12T01:42:03.949Z,98237.38
2023-05-12T01:45:07.387Z,98236.00
2023-05-12T01:48:10.133Z,98243.75
2023-05-12T01:51:12.818Z,98242.50
2023-05-12T01:54:15.359Z,98247.22
2023-05-12T01:57:19.176Z,98240.38
2023-05-12T02:00:22.086Z,98241.50
2023-05-12T02:03:24.952Z,98240.38
2023-05-12T02:06:28.443Z,98237.88
2023-05-12T02:09:31.097Z,98236.97
2023-05-12T02:12:35.202Z,98239.34
2023-05-12T02:15:37.706Z,98244.81
2023-05-12T02:18:40.549Z,98239.34
2023-05-12T02:21:46.015Z,98245.63
2023-05-12T02:24:48.629Z,98236.97
2023-05-12T02:27:52.495Z,98236.75
2023-05-12T02:30:55.095Z,98240.88
2023-05-12T02:33:58.787Z,98237.22
2023-05-12T02:37:01.269Z,98238.81
2023-05-12T02:40:04.729Z,98240.53
2023-05-12T02:43:08.603Z,98232.19
2023-05-12T02:46:11.247Z,98232.63
2023-05-12T02:49:13.853Z,98235.81
2023-05-12T02:52:16.533Z,98245.88
2023-05-12T02:55:19.179Z,98231.72
2023-05-12T02:58:23.288Z,98235.47
2023-05-12T03:01:25.857Z,98235.94
2023-05-12T03:04:28.432Z,98240.13
2023-05-12T03:07:31.231Z,98243.16
2023-05-12T03:10:34.045Z,98247.47
2023-05-12T03:13:37.998Z,98242.09
2023-05-12T03:16:40.641Z,98246.44
2023-05-12T03:19:43.546Z,98242.56
2023-05-12T03:22:46.189Z,98238.47
2023-05-12T03:25:48.747Z,98241.53
2023-05-12T03:28:52.633Z,98244.28
2023-05-12T03:31:55.422Z,98238.47
2023-05-12T03:34:58.335Z,98240.06
2023-05-12T03:38:00.868Z,98246.78
2023-05-12T03:41:06.823Z,98246.44
2023-05-12T03:44:11.161Z,98245.19
2023-05-12T03:47:13.953Z,98242.44
2023-05-12T03:50:16.889Z,98245.63
2023-05-12T03:53:19.446Z,98237.41
2023-05-12T03:56:22.088Z,98241.41
2023-05-12T03:59:25.986Z,98239.81
2023-05-12T04:02:28.669Z,98236.47
2023-05-12T04:05:31.313Z,98232.59
2023-05-12T04:08:33.984Z,98227.22
2023-05-12T04:11:36.891Z,98232.78
2023-05-12T04:14:43.093Z,98225.34
2023-05-12T04:17:46.238Z,98230.03
2023-05-12T04:20:48.797Z,98233.94
2023-05-12T04:23:52.411Z,98233.72
2023-05-12T04:26:55.020Z,98246.19
2023-05-12T04:29:58.933Z,98243.56
2023-05-12T04:33:01.744Z,98244.72
2023-05-12T04:36:05.687Z,98239.97
2023-05-12T04:39:08.175Z,98254.31
2023-05-12T04:42:10.714Z,98247.44
2023-05-12T04:45:14.636Z,98250.19
2023-05-12T04:48:17.227Z,98251.00
2023-05-12T04:51:19.807Z,98260.22
2023-05-12T04:54:23.607Z,98261.25
2023-05-12T04:57:26.078Z,98257.78
2023-05-12T05:00:29.919Z,98261.50
2023-05-12T05:03:32.560Z,98260.00
2023-05-12T05:06:35.125Z,98263.66
2023-05-12T05:09:37.635Z,98264.81
2023-05-12T05:12:40.149Z,98264.25
2023-05-12T05:15:50.549Z,98259.44
2023-05-12T05:18:53.212Z,98264.94
2023-05-12T05:21:55.798Z,98263.97
2023-05-12T05:24:58.506Z,98271.94
2023-05-12T05:28:01.139Z,98273.09
2023-05-12T05:31:05.449Z,98274.44
2023-05-12T05:34:08.002Z,98271.59
2023-05-12T05:37:10.700Z,98285.34
2023-05-12T05:40:13.266Z,98280.81
2023-05-12T05:43:15.852Z,98275.50
2023-05-12T05:46:19.711Z,98280.97
2023-05-12T05:49:23.061Z,98287.22
2023-05-12T05:52:25.995Z,98278.75
2023-05-12T05:55:28.545Z,98282.72
2023-05-12T05:58:31.035Z,98283.72
2023-05-12T06:01:34.890Z,98285.03
2023-05-12T06:04:37.466Z,98288.00
2023-05-12T06:07:39.979Z,98292.94
2023-05-12T06:10:42.540Z,98289.44
2023-05-12T06:13:45.089Z,98295.28
2023-05-12T06:16:49.006Z,98302.72
2023-05-12T06:19:51.525Z,98295.63
2023-05-12T06:22:54.052Z,98292.22
2023-05-12T06:25:56.626Z,98296.75
2023-05-12T06:28:59.093Z,98295.22
2023-05-12T06:32:03.161Z,98302.69
2023-05-12T06:35:06.666Z,98297.78
2023-05-12T06:38:09.043Z,98307.09
2023-05-12T06:41:11.587Z,98304.78
2023-05-12T06:44:14.062Z,98313.75
2023-05-12T06:47:17.950Z,98309.25
2023-05-12T06:50:20.737Z,98304.88
2023-05-12T06:53:25.513Z,98310.72
2023-05-12T06:56:29.275Z,98305.38
2023-05-12T06:59:31.810Z,98309.06
2023-05-12T07:02:35.727Z,98309.31
2023-05-12T07:05:38.248Z,98309.28
2023-05-12T07:08:40.880Z,98309.78
2023-05-12T07:11:43.471Z,98317.63
2023-05-12T07:14:45.969Z,98305.81
2023-05-12T07:17:49.935Z,98312.16
2023-05-12T07:20:53.376Z,98312.16
2023-05-12T07:23:55.730Z,98306.81
2023-05-12T07:26:58.240Z,98311.84
2023-05-12T07:30:00.969Z,98304.91
2023-05-12T07:33:04.959Z,98312.19
2023-05-12T07:36:09.115Z,98308.41
2023-05-12T07:39:12.865Z,98305.16
2023-05-12T07:42:15.434Z,98309.97
2023-05-12T07:45:22.880Z,98299.78
2023-05-12T07:48:26.846Z,98299.50
2023-05-12T07:51:29.513Z,98293.16
2023-05-12T07:54:32.235Z,98295.91
2023-05-12T07:57:34.843Z,98296.84
2023-05-12T08:00:37.322Z,98302.41
2023-05-12T08:03:41.359Z,98303.53
2023-05-12T08:06:44.031Z,98304.06
2023-05-12T08:09:46.899Z,98295.34
2023-05-12T08:12:49.357Z,98295.88
2023-05-12T08:15:52.158Z,98308.94
2023-05-12T08:18:56.121Z,98305.75
2023-05-12T08:21:58.835Z,98297.06
2023-05-12T08:25:01.848Z,98301.06
2023-05-12T08:28:04.693Z,98300.66
2023-05-12T08:31:07.409Z,98293.53
2023-05-12T08:34:11.477Z,98295.09
2023-05-12T08:37:14.440Z,98297.84
2023-05-12T08:40:21.356Z,98302.25
2023-05-12T08:43:26.093Z,98298.28
2023-05-12T08:46:28.605Z,98290.75
2023-05-12T08:49:33.528Z,98306.59
2023-05-12T08:52:36.668Z,98302.63
2023-05-12T08:55:40.769Z,98307.31
2023-05-12T08:58:44.750Z,98305.66
2023-05-12T09:01:47.563Z,98305.94
2023-05-12T09:04:51.891Z,98309.78
2023-05-12T09:07:55.833Z,98311.03
2023-05-12T09:10:59.334Z,98299.91
2023-05-12T09:14:03.929Z,98305.88
2023-05-12T09:17:06.544Z,98299.19
2023-05-12T09:20:23.810Z,98299.38
2023-05-12T09:23:33.217Z,98300.28
2023-05-12T09:26:46.776Z,98305.41
2023-05-12T09:29:58.999Z,98305.00
2023-05-12T09:33:09.884Z,98307.75
2023-05-12T09:36:18.092Z,98300.25
2023-05-12T09:39:20.582Z,98298.66
2023-05-12T09:42:24.451Z,98299.44
2023-05-12T09:45:27.025Z,98305.63
2023-05-12T09:48:31.129Z,98308.03
2023-05-12T09:51:34.928Z,98308.72
2023-05-12T09:54:40.644Z,98301.66
2023-05-12T09:57:44.603Z,98301.47
2023-05-12T10:03:54.585Z,98298.31
2023-05-12T10:06:59.364Z,98299.84
2023-05-12T10:10:04.301Z,98298.06
2023-05-12T10:13:06.819Z,98294.56
2023-05-12T10:16:09.588Z,98296.63
2023-05-12T10:19:12.456Z,98304.53
2023-05-12T10:22:17.122Z,98304.97
2023-05-12T10:25:19.999Z,98299.44
2023-05-12T10:28:22.822Z,98303.59
2023-05-12T10:31:25.901Z,98299.94
2023-05-12T10:34:31.258Z,98293.59
2023-05-12T10:37:35.859Z,98294.59
2023-05-12T10:40:38.467Z,98294.75
2023-05-12T10:43:43.052Z,98299.47
2023-05-12T10:46:45.674Z,98285.34
2023-05-12T10:49:48.289Z,98308.34
2023-05-12T10:52:55.485Z,98300.19
2023-05-12T10:55:58.144Z,98302.63
2023-05-12T10:59:17.431Z,98300.66
2023-05-12T11:02:22.054Z,98301.84
2023-05-12T11:05:34.832Z,98306.59
2023-05-12T11:08:39.974Z,98306.53
2023-05-12T11:11:45.737Z,98305.63
2023-05-12T11:14:48.779Z,98318.53
2023-05-12T11:17:51.883Z,98320.22
2023-05-12T11:20:54.508Z,98324.88
2023-05-12T11:23:58.653Z,98324.69
2023-05-12T11:27:01.236Z,98327.78
2023-05-12T11:30:04.448Z,98325.91
2023-05-12T11:33:07.072Z,98334.25
2023-05-12T11:36:11.009Z,98335.84
2023-05-12T11:39:22.521Z,98330.06
2023-05-12T11:42:25.948Z,98333.84
2023-05-12T11:45:30.491Z,98327.69
2023-05-12T11:48:34.806Z,98320.56
2023-05-12T11:51:37.341Z,98338.41
2023-05-12T11:54:41.327Z,98332.84
2023-05-12T11:57:44.284Z,98328.88
2023-05-12T12:00:47.028Z,98332.88
2023-05-12T12:03:50.667Z,98330.84
2023-05-12T12:06:53.262Z,98340.19
2023-05-12T12:09:57.092Z,98344.84
2023-05-12T12:13:00.897Z,98339.06
2023-05-12T12:16:03.408Z,98339.91
2023-05-12T12:19:06.062Z,98342.13
2023-05-12T12:22:08.605Z,98335.16
2023-05-12T12:25:12.546Z,98330.50
2023-05-12T12:28:15.078Z,98332.22
2023-05-12T12:31:17.957Z,98335.94
2023-05-12T12:34:20.601Z,98344.13
2023-05-12T12:37:23.096Z,98333.59
2023-05-12T12:40:27.506Z,98341.69
2023-05-12T12:43:30.125Z,98339.66
2023-05-12T12:46:32.748Z,98338.47
2023-05-12T12:49:35.426Z,98339.34
2023-05-12T12:52:38.527Z,98341.66
2023-05-12T12:55:42.345Z,98341.91
2023-05-12T12:58:45.077Z,98340.66
2023-05-12T13:01:48.315Z,98329.41
2023-05-12T13:04:50.931Z,98332.06
2023-05-12T13:07:53.516Z,98331.44
2023-05-12T13:10:57.379Z,98335.72
2023-05-12T13:14:02.171Z,98339.34
2023-05-12T13:17:05.134Z,98348.25
2023-05-12T13:20:09.086Z,98336.66
2023-05-12T13:23:11.875Z,98334.38
2023-05-12T13:26:15.894Z,98341.84
2023-05-12T13:29:18.493Z,98341.13
2023-05-12T13:32:21.729Z,98350.22
2023-05-12T13:35:24.198Z,98337.53
2023-05-12T13:38:27.283Z,98340.69
2023-05-12T13:41:31.129Z,98337.53
2023-05-12T13:44:33.639Z,98335.53
2023-05-12T13:47:36.172Z,98334.34
2023-05-12T13:50:38.760Z,98339.03
2023-05-12T13:53:42.991Z,98337.81
2023-05-12T13:56:47.210Z,98334.63
2023-05-12T13:59:50.454Z,98336.25
2023-05-12T14:02:52.932Z,98336.31
2023-05-12T14:05:55.539Z,98335.56
2023-05-12T14:08:58.000Z,98343.44
2023-05-12T14:12:02.512Z,98339.09
2023-05-12T14:15:21.867Z,98339.91
2023-05-12T14:18:28.503Z,98337.09
2023-05-12T14:21:31.162Z,98340.66
2023-05-12T14:24:33.664Z,98341.28
2023-05-12T14:27:37.633Z,98350.28
2023-05-12T14:30:40.222Z,98348.53
2023-05-12T14:33:42.837Z,98347.63
2023-05-12T14:36:45.451Z,98340.59
2023-05-12T14:39:48.031Z,98344.06
2023-05-12T14:42:52.487Z,98330.03
2023-05-12T14:45:55.330Z,98338.84
2023-05-12T14:48:57.878Z,98342.66
2023-05-12T14:52:00.488Z,98331.13
2023-05-12T14:55:02.975Z,98337.91
2023-05-12T14:58:06.941Z,98335.50
2023-05-12T15:01:09.755Z,98334.91
2023-05-12T15:04:12.795Z,98345.16
2023-05-12T15:07:15.317Z,98342.75
2023-05-12T15:10:17.971Z,98350.28
2023-05-12T15:13:22.837Z,98342.78
2023-05-12T15:16:28.022Z,98355.53
2023-05-12T15:19:30.752Z,98357.75
2023-05-12T15:22:33.243Z,98361.25
2023-05-12T15:25:36.024Z,98359.59
2023-05-12T15:28:39.985Z,98356.78
2023-05-12T15:31:42.686Z,98360.00
2023-05-12T15:34:45.368Z,98359.72
2023-05-12T15:37:47.831Z,98370.84
2023-05-12T15:40:51.770Z,98367.19
2023-05-12T15:43:55.684Z,98368.88
2023-05-12T15:46:58.402Z,98379.16
2023-05-12T15:50:01.382Z,98370.47
2023-05-12T15:53:04.206Z,98366.53
2023-05-12T15:56:07.781Z,98364.25
2023-05-12T15:59:12.472Z,98365.53
2023-05-12T16:02:15.226Z,98365.13
2023-05-12T16:05:18.303Z,98359.59
2023-05-12T16:08:21.869Z,98367.56
2023-05-12T16:11:24.416Z,98369.16
2023-05-12T16:14:28.230Z,98371.09
2023-05-12T16:17:30.984Z,98373.06
2023-05-12T16:20:33.671Z,98365.06
2023-05-12T16:23:36.192Z,98368.91
2023-05-12T16:26:39.073Z,98375.97
2023-05-12T16:29:45.332Z,98374.28
2023-05-12T16:32:48.015Z,98374.94
2023-05-12T16:35:50.631Z,98365.97
2023-05-12T16:38:53.607Z,98369.78
2023-05-12T16:41:56.176Z,98369.88
2023-05-12T16:45:00.288Z,98372.09
2023-05-12T16:48:02.896Z,98376.47
2023-05-12T16:51:07.003Z,98370.03
2023-05-12T16:54:09.871Z,98367.00
2023-05-12T16:57:12.340Z,98374.06
2023-05-12T17:00:18.222Z,98381.91
2023-05-12T17:03:20.939Z,98374.28
2023-05-12T17:06:23.514Z,98379.41
2023-05-12T17:09:26.077Z,98377.94
2023-05-12T17:12:28.584Z,98384.34
2023-05-12T17:15:32.540Z,98390.31
2023-05-12T17:19:13.553Z,98389.47
2023-05-12T17:21:57.645Z,98392.78
2023-05-12T17:25:00.318Z,98392.53
2023-05-12T17:28:02.996Z,98397.84
2023-05-12T17:31:07.523Z,98398.28
2023-05-12T17:34:10.283Z,98391.91
2023-05-12T17:37:13.174Z,98398.13
2023-05-12T17:40:16.967Z,98409.50
2023-05-12T17:43:19.501Z,98407.53
2023-05-12T17:46:23.491Z,98401.28
2023-05-12T17:49:26.121Z,98401.88
2023-05-12T17:52:28.738Z,98408.06
2023-05-12T17:55:31.339Z,98412.53
2023-05-12T17:58:34.139Z,98406.31
2023-05-12T18:01:38.149Z,98419.31
2023-05-12T18:04:40.825Z,98419.06
2023-05-12T18:07:43.460Z,98419.75
2023-05-12T18:10:46.611Z,98422.53
2023-05-12T18:13:51.009Z,98421.91
2023-05-12T18:16:55.050Z,98426.81
2023-05-12T18:19:57.808Z,98423.69
2023-05-12T18:23:00.326Z,98424.41
2023-05-12T18:26:03.244Z,98420.06
2023-05-12T18:29:05.962Z,98422.34
2023-05-12T18:32:10.001Z,98430.34
2023-05-12T18:35:12.527Z,98431.69
2023-05-12T18:38:16.095Z,98441.75
2023-05-12T18:41:18.856Z,98434.41
2023-05-12T18:44:21.397Z,98431.38
2023-05-12T18:47:25.449Z,98431.63
2023-05-12T18:50:28.130Z,98430.31
2023-05-12T18:53:30.923Z,98435.69
2023-05-12T18:56:33.507Z,98441.75
2023-05-12T18:59:36.005Z,98447.16
2023-05-12T19:02:42.233Z,98452.09
2023-05-12T19:05:46.321Z,98461.50
2023-05-12T19:08:49.064Z,98455.91
2023-05-12T19:11:51.541Z,98457.34
2023-05-12T19:14:54.196Z,98460.88
2023-05-12T19:17:58.124Z,98463.28
2023-05-12T19:21:00.730Z,98472.28
2023-05-12T19:24:03.312Z,98473.34
2023-05-12T19:27:06.292Z,98478.31
2023-05-12T19:30:09.717Z,98477.94
2023-05-12T19:33:14.236Z,98486.50
2023-05-12T19:36:18.441Z,98488.00
2023-05-12T19:39:20.968Z,98491.19
2023-05-12T19:42:23.590Z,98493.06
2023-05-12T19:45:26.169Z,98486.66
2023-05-12T19:48:30.068Z,98492.59
2023-05-12T19:51:32.915Z,98498.22
2023-05-12T19:54:35.726Z,98499.72
2023-05-12T19:57:38.386Z,98492.53
2023-05-12T20:00:41.381Z,98498.41
2023-05-12T20:03:45.546Z,98500.38
2023-05-12T20:06:48.082Z,98498.19
2023-05-12T20:09:50.596Z,98497.41
2023-05-12T20:12:53.140Z,98499.63
2023-05-12T20:15:56.062Z,98496.44
2023-05-12T20:19:02.503Z,98505.50
2023-05-12T20:22:06.214Z,98505.81
2023-05-12T20:25:14.295Z,98506.19
2023-05-12T20:28:16.827Z,98511.22
2023-05-12T20:31:19.968Z,98517.09
2023-05-12T20:34:24.038Z,98517.44
2023-05-12T20:37:27.349Z,98532.44
2023-05-12T20:40:29.902Z,98518.25
2023-05-12T20:43:32.425Z,98526.56
2023-05-12T20:46:37.911Z,98523.72
2023-05-12T20:49:42.766Z,98531.34
2023-05-12T20:52:46.190Z,98528.84
2023-05-12T20:55:48.679Z,98534.94
2023-05-12T20:58:51.301Z,98534.50
2023-05-12T21:01:54.448Z,98541.41
2023-05-12T21:04:58.429Z,98535.78
2023-05-12T21:08:01.082Z,98547.47
2023-05-12T21:11:03.592Z,98544.16
2023-05-12T21:14:06.175Z,98550.63
2023-05-12T21:17:09.972Z,98555.69
2023-05-12T21:20:14.229Z,98553.28
2023-05-12T21:23:16.788Z,98554.56
2023-05-12T21:26:19.315Z,98552.75
2023-05-12T21:29:21.938Z,98554.03
2023-05-12T21:32:24.656Z,98560.34
2023-05-12T21:35:28.873Z,98551.97
2023-05-12T21:38:31.919Z,98557.59
2023-05-12T21:41:34.484Z,98549.94
2023-05-12T21:44:36.914Z,98549.13
2023-05-12T21:47:39.578Z,98561.94
2023-05-12T21:50:43.950Z,98555.28
2023-05-12T21:53:46.433Z,98553.69
2023-05-12T21:56:49.057Z,98548.09
2023-05-12T21:59:51.959Z,98557.59
2023-05-12T22:02:54.462Z,98555.41
2023-05-12T22:05:58.323Z,98549.78
2023-05-12T22:09:00.922Z,98562.13
2023-05-12T22:12:03.543Z,98556.88
2023-05-12T22:15:06.873Z,98564.03
2023-05-12T22:18:09.514Z,98562.44
2023-05-12T22:21:13.678Z,98564.41
2023-05-12T22:24:16.154Z,98562.00
2023-05-12T22:27:21.993Z,98558.91
2023-05-12T22:30:24.733Z,98564.50
2023-05-12T22:33:27.434Z,98561.41
2023-05-12T22:36:31.298Z,98566.91
2023-05-12T22:39:33.811Z,98560.63
2023-05-12T22:42:36.514Z,98566.00
2023-05-12T22:45:39.088Z,98571.72
2023-05-12T22:48:41.941Z,98575.31
2023-05-12T22:51:45.946Z,98566.72
2023-05-12T22:54:48.474Z,98565.09
2023-05-12T22:57:51.252Z,98566.72
2023-05-12T23:00:54.110Z,98563.97
2023-05-12T23:03:56.773Z,98561.09
2023-05-12T23:07:00.692Z,98564.19
2023-05-12T23:10:03.212Z,98562.72
2023-05-12T23:13:05.749Z,98559.88
2023-05-12T23:16:08.822Z,98560.78
2023-05-12T23:19:11.451Z,98549.56
2023-05-12T23:22:15.434Z,98548.19
2023-05-12T23:25:17.953Z,98551.75
2023-05-12T23:28:20.509Z,98556.00
2023-05-12T23:31:23.053Z,98546.84
2023-05-12T23:34:25.611Z,98544.00
2023-05-12T23:37:29.459Z,98540.56
2023-05-12T23:40:33.381Z,98543.63
2023-05-12T23:43:36.016Z,98547.53
2023-05-12T23:46:38.574Z,98535.84
2023-05-12T23:49:41.230Z,98538.38
2023-05-12T23:52:45.275Z,98536.78
2023-05-12T23:55:47.766Z,98531.28
2023-05-12T23:58:50.281Z,98536.78
